»·PEaware :: N172MY KSBP-KFAT

N172MY :: KSBP-KFAT

FLIGHT INFORMATION

Flight Status: Arrived
Operator: Privately registered:
United States
More flights under this callsign
Pilot: Christopher V. (26992)
Aircraft: CESSNA 172 SKYHAWK
(C172)
More flights by this aircraft type
Origin: KSBP San Luis Co Regl
United States
Destination: KFAT Fresno Yosemite Intl
United States
More flights between these airports :: More routes between these airports
Route: +
File this flight plan on PilotEdge
Remarks:
Altitude:
(Current/Filed)
0ft
Speed:
(Current/Filed)
0kts
Departed: 14-Jan-20 06:30 PM
Arrived: 14-Jan-20 07:38 PM
Distance/Time
Traveled:
103nm/1:08
Distance/Time
To Go:
Arrived

Flight Plot

Page will automatically refresh every two minutes.

Flight plan parsing failed; only flown route is shown


Map Options




Map Legend


Flown Route
Filed Route
Departure Airport
Arrival Airport
Navaid (VOR, NDB)
Fix

Horizontal Profiles

Position Reports

Time Latitude Longitude Heading Altitude Ground
Speed
14-Jan-20 18:21 35.238398 -120.639802 232 216ft 0kts
14-Jan-20 18:23 35.238398 -120.639802 232 216ft 0kts
14-Jan-20 18:24 35.237550 -120.639478 122 216ft 13kts
14-Jan-20 18:24 35.234267 -120.633690 124 216ft 32kts
14-Jan-20 18:25 35.233191 -120.632337 213 216ft 0kts
14-Jan-20 18:27 35.233191 -120.632337 213 216ft 0kts
14-Jan-20 18:27 35.232787 -120.633031 300 216ft 0kts
14-Jan-20 18:28 35.232787 -120.633031 300 216ft 0kts
14-Jan-20 18:29 35.242569 -120.651026 305 544ft 85kts
14-Jan-20 18:30 35.259529 -120.650948 69 1256ft 93kts
14-Jan-20 18:31 35.245927 -120.621686 124 1910ft 106kts
14-Jan-20 18:32 35.227387 -120.591901 106 2479ft 112kts
14-Jan-20 18:33 35.245644 -120.577406 356 3063ft 90kts
14-Jan-20 18:34 35.271157 -120.573323 4 3609ft 95kts
14-Jan-20 18:35 35.297409 -120.569995 359 4093ft 97kts
14-Jan-20 18:36 35.325064 -120.567010 359 4507ft 100kts
14-Jan-20 18:37 35.352537 -120.558883 10 4916ft 103kts
14-Jan-20 18:38 35.372555 -120.550840 10 5218ft 102kts
14-Jan-20 18:39 35.399869 -120.539596 10 5498ft 107kts
14-Jan-20 18:40 35.427542 -120.524690 17 5495ft 109kts
14-Jan-20 18:41 35.455009 -120.508888 17 5495ft 109kts
14-Jan-20 18:42 35.482459 -120.493026 17 5495ft 109kts
14-Jan-20 18:43 35.509951 -120.477071 17 5495ft 109kts
14-Jan-20 18:44 35.537349 -120.461100 17 5495ft 109kts
14-Jan-20 18:45 35.564695 -120.445090 17 5495ft 109kts
14-Jan-20 18:46 35.592095 -120.428979 17 5495ft 109kts
14-Jan-20 18:47 35.619488 -120.412803 17 5495ft 109kts
14-Jan-20 18:48 35.646874 -120.396560 17 5495ft 109kts
14-Jan-20 18:49 35.674131 -120.380324 17 5494ft 109kts
14-Jan-20 18:50 35.701464 -120.363972 17 5494ft 109kts
14-Jan-20 18:51 35.728890 -120.347493 18 5493ft 109kts
14-Jan-20 18:52 35.753819 -120.332412 18 5492ft 108kts
14-Jan-20 18:53 35.780917 -120.315937 18 5492ft 108kts
14-Jan-20 18:54 35.808002 -120.299399 18 5492ft 108kts
14-Jan-20 18:55 35.835077 -120.282796 18 5492ft 108kts
14-Jan-20 18:56 35.862047 -120.266188 18 5492ft 108kts
14-Jan-20 18:57 35.889018 -120.249509 18 5492ft 108kts
14-Jan-20 18:58 35.916041 -120.232728 18 5492ft 108kts
14-Jan-20 18:59 35.943010 -120.215910 19 5492ft 108kts
14-Jan-20 19:00 35.969933 -120.198777 20 5489ft 109kts
14-Jan-20 19:01 35.996338 -120.181332 19 5535ft 106kts
14-Jan-20 19:02 36.023335 -120.165114 16 5490ft 107kts
14-Jan-20 19:03 36.050483 -120.151266 15 5477ft 105kts
14-Jan-20 19:04 36.077319 -120.137005 16 5478ft 105kts
14-Jan-20 19:05 36.103937 -120.122603 4 5515ft 100kts
14-Jan-20 19:06 36.128648 -120.119534 35 5496ft 110kts
14-Jan-20 19:07 36.152681 -120.097382 23 5516ft 108kts
14-Jan-20 19:08 36.178000 -120.077410 23 5543ft 107kts
14-Jan-20 19:09 36.203600 -120.056670 25 5501ft 111kts
14-Jan-20 19:10 36.229972 -120.039238 17 5506ft 107kts
14-Jan-20 19:11 36.257339 -120.023603 18 5485ft 107kts
14-Jan-20 19:12 36.280951 -120.006674 25 5473ft 109kts
14-Jan-20 19:13 36.301093 -119.990850 24 5529ft 107kts
14-Jan-20 19:14 36.326976 -119.972681 16 5547ft 104kts
14-Jan-20 19:15 36.354453 -119.958179 15 5503ft 106kts
14-Jan-20 19:16 36.382799 -119.945915 14 5417ft 109kts
14-Jan-20 19:17 36.409896 -119.933632 10 5543ft 98kts
14-Jan-20 19:18 36.435206 -119.922465 11 5428ft 97kts
14-Jan-20 19:19 36.461122 -119.910243 12 5137ft 101kts
14-Jan-20 19:20 36.487276 -119.896658 20 5102ft 94kts
14-Jan-20 19:21 36.512984 -119.879193 22 4713ft 112kts
14-Jan-20 19:22 36.539674 -119.862943 14 4075ft 101kts
14-Jan-20 19:23 36.565268 -119.854275 2 3714ft 88kts
14-Jan-20 19:24 36.590175 -119.851061 357 3528ft 91kts
14-Jan-20 19:25 36.615916 -119.850260 350 3329ft 94kts
14-Jan-20 19:26 36.641665 -119.856178 349 2993ft 92kts
14-Jan-20 19:27 36.668874 -119.859021 346 2326ft 100kts
14-Jan-20 19:28 36.693829 -119.864057 352 1990ft 88kts
14-Jan-20 19:29 36.718604 -119.854000 33 1354ft 107kts
14-Jan-20 19:30 36.729265 -119.825459 70 1197ft 80kts
14-Jan-20 19:31 36.738450 -119.799285 55 1472ft 86kts
14-Jan-20 19:32 36.751020 -119.769643 54 1386ft 101kts
14-Jan-20 19:33 36.761471 -119.740254 96 1284ft 101kts
14-Jan-20 19:34 36.749749 -119.712368 120 1146ft 80kts
14-Jan-20 19:35 36.754811 -119.695870 348 1107ft 58kts
14-Jan-20 19:36 36.768716 -119.707477 308 489ft 56kts
14-Jan-20 19:37 36.772850 -119.715530 229 329ft 0kts
14-Jan-20 19:38 36.774992 -119.720811 306 329ft 39kts
14-Jan-20 19:39 36.779337 -119.729223 163 329ft 4kts
14-Jan-20 19:40 36.778774 -119.730748 81 329ft 0kts
14-Jan-20 19:41 36.778774 -119.730748 81 329ft 0kts
14-Jan-20 19:42 36.778774 -119.730748 81 329ft 0kts
14-Jan-20 19:43 36.778774 -119.730748 81 329ft 0kts
14-Jan-20 19:44 36.778774 -119.730748 81 329ft 0kts
14-Jan-20 19:45 36.778774 -119.730748 81 329ft 0kts
14-Jan-20 19:46 36.778774 -119.730748 81 329ft 0kts
14-Jan-20 19:47 36.778774 -119.730748 81 329ft 0kts
14-Jan-20 19:48 36.778774 -119.730748 81 329ft 0kts
14-Jan-20 19:49 36.778774 -119.730748 81 329ft 0kts
14-Jan-20 19:50 36.778774 -119.730748 81 329ft 0kts
14-Jan-20 19:51 36.778774 -119.730748 81 329ft 0kts
14-Jan-20 19:52 36.778814 -119.729314 94 329ft 6kts

Navigation Log

Ident Type
Flight plan parsing failed, navigation log unavailable